LIMZ/CUF METAR and TAF weather

Enter ICAO airport designator
Station Type Date Time Source
LIMZ METAR 2021/03/09 09:50 UTC NOAA

LIMZ 090950Z AUTO 01005KT 7000 BKN012/// BKN028/// BKN071/// 07/05 Q1015


Station Type Date Time Source
LIMZ Decoded METAR 2021/03/09 09:50 UTC NOAA

Cuneo / Levaldigi, Italy (LIMZ) 44-32-47N 007-37-20E
Mar 09, 2021 - 04:50 AM EST / 2021.03.09 0950 UTC
Wind: from the N (010 degrees) at 6 MPH (5 KT):0
Visibility: 4 mile(s):0
Sky conditions: mostly cloudy
Temperature: 44 F (7 C)
Dew Point: 41 F (5 C)
Relative Humidity: 87%
Pressure (altimeter): 29.97 in. Hg (1015 hPa)
ob: LIMZ 090950Z AUTO 01005KT 7000 BKN012/// BKN028/// BKN071/// 07/05 Q1015
cycle: 10

Station Type Date Time Source
LIMZ TAF 2021/03/09 06:21 UTC NOAA

TAF LIMZ 090500Z 0906/1006 VRB03KT 9999 BKN060
TEMPO 0906/0908 2000 BCFG

Example: see airport list